Time;durP1;ratioP1;P1;durP2;ratioP2;P2;SDS_P1;SDS_P2;PMS_P1;PMS_P2;Temp;Humidity;BMP_temperature;BMP_pressure;BME280_temperature;BME280_humidity;BME280_pressure;Samples;Min_cycle;Max_cycle;Signal;HPM_P1;HPM_P2
2023/11/13 00:00:23;;;;;;;18.60;11.30;;;;;;;2.92;100.00;100635.56;5069191;28;20060;-47
2023/11/13 00:02:51;;;;;;;18.13;11.40;;;;;;;2.93;100.00;100652.00;5068923;28;20048;-47
2023/11/13 00:05:20;;;;;;;16.83;11.93;;;;;;;2.94;100.00;100658.88;5069775;28;20496;-46
2023/11/13 00:07:48;;;;;;;21.77;12.10;;;;;;;2.93;100.00;100654.59;5070550;28;20044;-48
2023/11/13 00:10:16;;;;;;;18.45;10.98;;;;;;;2.91;100.00;100635.63;5068010;28;20131;-48
2023/11/13 00:12:45;;;;;;;20.88;11.45;;;;;;;2.87;100.00;100640.91;5068093;28;20072;-47
2023/11/13 00:15:13;;;;;;;16.42;11.27;;;;;;;2.85;100.00;100637.53;5060588;28;20037;-46
2023/11/13 00:17:41;;;;;;;17.42;11.85;;;;;;;2.81;100.00;100629.88;5065722;28;20499;-50
2023/11/13 00:20:10;;;;;;;17.85;11.10;;;;;;;2.78;100.00;100625.69;5066965;28;20048;-46
2023/11/13 00:22:41;;;;;;;18.15;12.10;;;;;;;2.77;100.00;100626.56;5070119;28;20049;-50
2023/11/13 00:25:09;;;;;;;21.67;11.45;;;;;;;2.74;100.00;100625.81;5071443;28;20131;-48
2023/11/13 00:27:37;;;;;;;17.02;10.88;;;;;;;2.73;100.00;100617.19;5068812;28;20553;-49
2023/11/13 00:30:07;;;;;;;15.43;10.90;;;;;;;2.72;100.00;100615.50;5068564;28;20040;-49
2023/11/13 00:32:35;;;;;;;17.02;10.23;;;;;;;2.72;100.00;100610.31;5068539;28;20049;-46
2023/11/13 00:35:04;;;;;;;14.90;9.85;;;;;;;2.72;100.00;100609.47;5068310;28;20106;-49
2023/11/13 00:37:33;;;;;;;18.70;10.23;;;;;;;2.70;100.00;100612.13;5069073;28;20048;-49
2023/11/13 00:40:04;;;;;;;15.95;9.90;;;;;;;2.68;100.00;100606.13;5059588;28;20049;-50
2023/11/13 00:42:33;;;;;;;15.97;10.33;;;;;;;2.67;100.00;100601.81;5055830;28;20057;-48
2023/11/13 00:45:02;;;;;;;18.52;10.25;;;;;;;2.63;100.00;100600.25;5069085;28;20478;-47
2023/11/13 00:47:30;;;;;;;18.85;11.55;;;;;;;2.62;100.00;100593.34;5071958;28;20059;-50
2023/11/13 00:49:58;;;;;;;14.43;9.70;;;;;;;2.59;100.00;100578.75;5068694;28;20044;-51
2023/11/13 00:52:26;;;;;;;19.20;10.95;;;;;;;2.59;100.00;100572.69;5068203;28;20525;-49
2023/11/13 00:54:56;;;;;;;18.02;11.40;;;;;;;2.59;100.00;100577.88;5067675;28;20108;-47
2023/11/13 00:57:26;;;;;;;17.50;11.60;;;;;;;2.61;100.00;100576.09;5068202;28;20058;-46
2023/11/13 00:59:54;;;;;;;17.15;10.95;;;;;;;2.60;100.00;100574.41;5067396;28;20048;-47
2023/11/13 01:02:23;;;;;;;18.02;11.23;;;;;;;2.61;100.00;100576.09;5067775;28;20071;-48
2023/11/13 01:04:52;;;;;;;16.55;10.77;;;;;;;2.62;100.00;100582.97;5071614;28;20407;-48
2023/11/13 01:07:21;;;;;;;19.83;11.40;;;;;;;2.65;100.00;100575.91;5070572;28;20059;-49
2023/11/13 01:09:49;;;;;;;18.25;12.02;;;;;;;2.65;100.00;100572.50;5068128;28;20040;-48
2023/11/13 01:12:19;;;;;;;18.25;10.50;;;;;;;2.64;100.00;100575.97;5067532;28;20068;-47
2023/11/13 01:14:49;;;;;;;20.77;11.77;;;;;;;2.64;100.00;100563.00;5068620;28;20048;-45
2023/11/13 01:17:17;;;;;;;23.08;13.02;;;;;;;2.66;100.00;100558.59;5067555;28;20052;-47
2023/11/13 01:19:45;;;;;;;20.35;12.18;;;;;;;2.68;100.00;100556.78;5067976;28;20040;-48
2023/11/13 01:22:16;;;;;;;15.55;10.98;;;;;;;2.67;100.00;100557.69;5054547;28;20084;-49
2023/11/13 01:24:44;;;;;;;16.75;11.63;;;;;;;2.65;100.00;100564.69;5046863;28;20029;-48
2023/11/13 01:27:12;;;;;;;18.52;11.77;;;;;;;2.63;100.00;100558.69;5057628;28;20474;-52
2023/11/13 01:29:40;;;;;;;16.85;12.18;;;;;;;2.61;100.00;100552.72;5068770;28;20492;-48
2023/11/13 01:32:10;;;;;;;22.58;11.48;;;;;;;2.61;100.00;100548.38;5066808;28;20048;-48
2023/11/13 01:34:38;;;;;;;19.98;12.02;;;;;;;2.60;100.00;100549.25;5071462;28;20032;-50
2023/11/13 01:37:07;;;;;;;18.33;11.85;;;;;;;2.61;100.00;100547.53;5071487;28;20048;-50
2023/11/13 01:39:35;;;;;;;21.67;11.95;;;;;;;2.58;100.00;100545.03;5071788;28;20045;-49
2023/11/13 01:42:03;;;;;;;17.48;11.88;;;;;;;2.57;100.00;100549.38;5071375;28;20630;-46
2023/11/13 01:44:31;;;;;;;17.42;11.15;;;;;;;2.57;100.00;100548.56;5071147;28;20090;-46
2023/11/13 01:47:00;;;;;;;18.85;11.45;;;;;;;2.56;100.00;100544.25;5071215;28;20049;-46
2023/11/13 01:49:30;;;;;;;18.40;11.60;;;;;;;2.58;100.00;100545.03;5069816;28;20059;-47
2023/11/13 01:51:59;;;;;;;19.70;11.30;;;;;;;2.57;100.00;100551.16;5069353;28;20072;-47
2023/11/13 01:54:27;;;;;;;19.98;11.32;;;;;;;2.56;100.00;100558.06;5067557;28;20048;-46
2023/11/13 01:56:57;;;;;;;18.00;11.32;;;;;;;2.59;100.00;100547.59;5063741;28;20053;-48
2023/11/13 01:59:27;;;;;;;18.80;11.98;;;;;;;2.59;100.00;100544.13;5060674;28;20163;-46
2023/11/13 02:01:56;;;;;;;16.83;11.20;;;;;;;2.62;100.00;100549.19;5064690;28;20056;-49
2023/11/13 02:04:24;;;;;;;20.83;12.80;;;;;;;2.64;100.00;100547.41;5055867;28;20047;-47
2023/11/13 02:06:54;;;;;;;17.10;11.30;;;;;;;2.65;100.00;100549.94;5053989;28;20080;-49
2023/11/13 02:09:24;;;;;;;20.88;12.60;;;;;;;2.66;100.00;100553.41;5052327;28;20053;-48
2023/11/13 02:11:52;;;;;;;19.58;12.52;;;;;;;2.69;100.00;100553.28;5062662;28;20052;-45
2023/11/13 02:14:21;;;;;;;17.85;11.75;;;;;;;2.74;100.00;100543.59;5053877;28;20056;-46
2023/11/13 02:16:49;;;;;;;19.23;11.05;;;;;;;2.74;100.00;100530.59;5060220;28;20040;-47
2023/11/13 02:19:17;;;;;;;20.38;12.18;;;;;;;2.73;100.00;100520.25;5061141;28;20048;-46
2023/11/13 02:21:46;;;;;;;22.02;12.00;;;;;;;2.73;100.00;100507.25;5066817;28;20105;-45
2023/11/13 02:24:16;;;;;;;19.40;11.75;;;;;;;2.75;100.00;100506.28;5055605;28;20051;-45
2023/11/13 02:26:44;;;;;;;17.98;11.05;;;;;;;2.76;100.00;100510.59;5050318;28;20045;-48
2023/11/13 02:29:12;;;;;;;17.65;11.55;;;;;;;2.78;100.00;100503.59;5055134;28;20055;-46
2023/11/13 02:31:50;;;;;;;18.65;12.18;;;;;;;2.80;100.00;100503.53;5062351;28;20491;-47
2023/11/13 02:34:19;;;;;;;20.33;11.60;;;;;;;2.82;100.00;100501.72;5062593;28;20517;-50
2023/11/13 02:36:49;;;;;;;18.25;11.20;;;;;;;2.85;100.00;100499.00;5070457;28;20543;-47
2023/11/13 02:39:21;;;;;;;17.58;11.05;;;;;;;2.87;100.00;100484.22;5062261;28;20043;-55
2023/11/13 02:41:51;;;;;;;18.75;11.77;;;;;;;2.86;100.00;100485.97;5062849;28;20107;-56
2023/11/13 02:44:20;;;;;;;17.98;11.10;;;;;;;2.87;100.00;100479.84;5061684;28;20467;-54
2023/11/13 02:46:48;;;;;;;20.80;11.70;;;;;;;2.90;100.00;100483.25;5053348;28;20041;-56
2023/11/13 02:49:20;;;;;;;17.20;11.68;;;;;;;2.91;100.00;100480.59;5063140;28;20365;-55
2023/11/13 02:51:49;;;;;;;18.23;11.35;;;;;;;2.93;100.00;100467.53;5060303;28;20049;-54
2023/11/13 02:54:19;;;;;;;18.83;10.85;;;;;;;2.95;100.00;100465.75;5053264;28;20067;-57
2023/11/13 02:56:48;;;;;;;17.35;11.38;;;;;;;2.98;100.00;100463.84;5051744;28;20547;-54
2023/11/13 02:59:16;;;;;;;18.70;10.80;;;;;;;2.99;100.00;100449.13;5058653;28;20048;-53
2023/11/13 03:01:44;;;;;;;17.10;11.00;;;;;;;3.01;100.00;100457.69;5062301;28;20045;-54
2023/11/13 03:04:13;;;;;;;16.55;10.43;;;;;;;3.02;100.00;100465.41;5052465;28;20449;-55
2023/11/13 03:06:41;;;;;;;17.73;11.43;;;;;;;3.07;100.00;100470.44;5056924;28;20045;-55
2023/11/13 03:09:09;;;;;;;20.30;11.32;;;;;;;3.08;100.00;100469.56;5063941;28;20060;-54
2023/11/13 03:11:38;;;;;;;17.55;10.25;;;;;;;3.08;100.00;100479.94;5051388;28;20072;-55
2023/11/13 03:14:07;;;;;;;16.17;10.80;;;;;;;3.09;100.00;100486.81;5050622;28;20512;-55
2023/11/13 03:16:35;;;;;;;16.98;10.45;;;;;;;3.09;100.00;100489.41;5065662;28;20048;-55
2023/11/13 03:19:03;;;;;;;18.33;10.15;;;;;;;3.10;100.00;100483.31;5067071;28;20500;-49
2023/11/13 03:21:31;;;;;;;18.80;10.43;;;;;;;3.11;100.00;100486.75;5065324;28;20045;-55
2023/11/13 03:24:02;;;;;;;18.38;10.38;;;;;;;3.12;100.00;100476.31;5064329;28;20396;-55
2023/11/13 03:26:30;;;;;;;17.40;10.48;;;;;;;3.14;100.00;100490.06;5066527;28;20598;-56
2023/11/13 03:28:59;;;;;;;19.05;10.80;;;;;;;3.19;100.00;100490.75;5072700;28;20503;-55
2023/11/13 03:31:28;;;;;;;17.83;10.77;;;;;;;3.19;100.00;100490.75;5069435;28;20056;-56
2023/11/13 03:33:56;;;;;;;21.30;10.70;;;;;;;3.21;100.00;100494.13;5069699;28;20040;-55
2023/11/13 03:36:24;;;;;;;16.73;10.18;;;;;;;3.25;100.00;100507.84;5069570;28;20056;-55
2023/11/13 03:38:52;;;;;;;17.70;10.73;;;;;;;3.27;100.00;100511.22;5070415;28;20059;-55
2023/11/13 03:41:20;;;;;;;16.23;10.50;;;;;;;3.28;100.00;100506.88;5072161;28;20048;-55
2023/11/13 03:43:48;;;;;;;15.70;9.60;;;;;;;3.29;100.00;100505.97;5070045;28;20049;-57
2023/11/13 03:46:18;;;;;;;16.48;10.20;;;;;;;3.31;100.00;100499.81;5068956;28;20049;-57
2023/11/13 03:48:46;;;;;;;15.85;10.18;;;;;;;3.33;100.00;100507.53;5069995;28;20554;-54
2023/11/13 03:51:14;;;;;;;18.55;10.02;;;;;;;3.35;100.00;100506.59;5068991;28;20036;-55
2023/11/13 03:53:46;;;;;;;16.33;10.82;;;;;;;3.37;100.00;100498.72;5068712;28;20404;-54
2023/11/13 03:56:14;;;;;;;19.77;10.20;;;;;;;3.40;100.00;100497.75;5066481;28;20138;-56
2023/11/13 03:58:43;;;;;;;16.67;9.75;;;;;;;3.42;100.00;100499.34;5065223;28;20044;-56
2023/11/13 04:01:11;;;;;;;17.08;9.60;;;;;;;3.46;100.00;100495.72;5060356;28;20048;-55
2023/11/13 04:03:40;;;;;;;14.57;9.57;;;;;;;3.48;100.00;100491.31;5058092;28;20411;-56
2023/11/13 04:06:08;;;;;;;16.02;9.60;;;;;;;3.50;100.00;100505.06;5056915;28;20102;-55
2023/11/13 04:08:39;;;;;;;18.98;9.57;;;;;;;3.54;100.00;100495.41;5059040;28;20518;-55
2023/11/13 04:11:08;;;;;;;17.27;9.88;;;;;;;3.57;100.00;100497.88;5068487;28;20059;-55
2023/11/13 04:13:39;;;;;;;18.17;9.70;;;;;;;3.64;100.00;100491.53;5052981;28;20059;-56
2023/11/13 04:16:08;;;;;;;15.85;9.82;;;;;;;3.67;100.00;100480.16;5057331;28;20064;-55
2023/11/13 04:18:37;;;;;;;19.58;10.95;;;;;;;3.73;100.00;100485.09;5062915;28;20033;-56
2023/11/13 04:21:07;;;;;;;16.58;10.02;;;;;;;3.76;100.00;100471.94;5058948;28;20040;-55
2023/11/13 04:23:35;;;;;;;16.88;9.95;;;;;;;3.81;100.00;100476.97;5060529;28;20505;-56
2023/11/13 04:26:04;;;;;;;18.48;10.75;;;;;;;3.91;100.00;100462.63;5069551;28;20442;-55
2023/11/13 04:28:33;;;;;;;15.98;10.30;;;;;;;3.93;100.00;100467.75;5069511;28;20048;-55
2023/11/13 04:31:05;;;;;;;14.80;9.07;;;;;;;3.94;100.00;100459.06;5068452;28;20129;-55
2023/11/13 04:33:34;;;;;;;15.55;9.52;;;;;;;3.98;100.00;100463.22;5067883;28;20052;-56
2023/11/13 04:36:02;;;;;;;16.23;9.65;;;;;;;4.02;100.00;100447.41;5068914;28;20067;-56
2023/11/13 04:38:36;;;;;;;18.90;10.32;;;;;;;4.04;100.00;100444.75;5056247;28;20040;-56
2023/11/13 04:41:04;;;;;;;18.65;10.48;;;;;;;4.12;100.00;100429.63;5058870;28;20052;-55
2023/11/13 04:43:33;;;;;;;16.95;10.50;;;;;;;4.15;100.00;100420.84;5063966;28;20546;-55
2023/11/13 04:46:01;;;;;;;15.85;9.93;;;;;;;4.19;100.00;100407.59;5052687;28;20503;-55
2023/11/13 04:48:29;;;;;;;17.38;10.45;;;;;;;4.21;100.00;100403.19;5062028;28;20098;-56
2023/11/13 04:50:57;;;;;;;14.23;9.50;;;;;;;4.26;100.00;100391.72;5067185;28;20044;-57
2023/11/13 04:53:26;;;;;;;15.88;10.23;;;;;;;4.29;100.00;100396.78;5061942;28;20095;-57
2023/11/13 04:55:55;;;;;;;15.23;9.98;;;;;;;4.26;100.00;100389.94;5051538;28;20041;-54
2023/11/13 04:58:23;;;;;;;18.90;10.90;;;;;;;4.35;100.00;100399.09;5055689;28;20044;-57
2023/11/13 05:00:52;;;;;;;19.73;9.75;;;;;;;4.33;100.00;100403.53;5061842;28;20094;-46
2023/11/13 05:03:20;;;;;;;18.13;10.63;;;;;;;4.35;100.00;100397.34;5065446;28;20045;-50
2023/11/13 05:05:48;;;;;;;20.30;10.85;;;;;;;4.39;100.00;100403.22;5069222;28;20123;-50
2023/11/13 05:08:16;;;;;;;18.55;11.18;;;;;;;4.45;100.00;100410.78;5062641;28;20048;-48
2023/11/13 05:10:44;;;;;;;17.20;10.18;;;;;;;4.45;100.00;100405.56;5061286;28;20415;-50
2023/11/13 05:13:16;;;;;;;18.10;10.57;;;;;;;4.45;100.00;100402.97;5068511;28;20048;-50
2023/11/13 05:15:44;;;;;;;17.65;10.90;;;;;;;4.46;100.00;100402.06;5061244;28;20045;-49
2023/11/13 05:18:12;;;;;;;17.05;11.45;;;;;;;4.51;100.00;100394.00;5064984;28;20077;-49
2023/11/13 05:20:43;;;;;;;18.42;10.88;;;;;;;4.54;100.00;100393.84;5052663;28;20045;-48
2023/11/13 05:23:11;;;;;;;19.75;12.43;;;;;;;4.56;100.00;100398.09;5057016;28;20044;-48
2023/11/13 05:25:40;;;;;;;18.98;11.63;;;;;;;4.54;100.00;100394.72;5055132;28;20043;-48
2023/11/13 05:28:08;;;;;;;16.77;10.80;;;;;;;4.59;100.00;100394.50;5068182;28;20052;-49
2023/11/13 05:30:40;;;;;;;18.67;10.80;;;;;;;4.64;100.00;100383.88;5067890;28;20045;-50
2023/11/13 05:33:09;;;;;;;17.17;11.23;;;;;;;4.62;100.00;100381.34;5067640;28;20122;-50
2023/11/13 05:35:37;;;;;;;16.42;11.57;;;;;;;4.71;100.00;100380.06;5067846;28;20063;-48
2023/11/13 05:38:05;;;;;;;19.27;11.57;;;;;;;4.68;100.00;100369.78;5069325;28;20399;-50
2023/11/13 05:40:33;;;;;;;18.92;11.60;;;;;;;4.67;100.00;100362.88;5061863;28;20059;-48
2023/11/13 05:43:01;;;;;;;20.38;12.27;;;;;;;4.69;100.00;100345.41;5067252;28;20060;-50
2023/11/13 05:45:29;;;;;;;20.52;11.93;;;;;;;4.69;100.00;100346.25;5061804;28;20776;-48
2023/11/13 05:47:59;;;;;;;21.13;12.38;;;;;;;4.81;100.00;100347.41;5050331;28;20056;-48
2023/11/13 05:50:27;;;;;;;21.70;12.73;;;;;;;4.83;100.00;100339.53;5070532;28;20130;-47
2023/11/13 05:52:55;;;;;;;22.40;12.07;;;;;;;4.86;100.00;100342.81;5062856;28;20492;-47
2023/11/13 05:55:23;;;;;;;20.45;12.73;;;;;;;4.84;100.00;100336.84;5061617;28;20033;-49
2023/11/13 05:57:52;;;;;;;20.05;13.38;;;;;;;4.91;100.00;100334.78;5067471;28;20049;-48
2023/11/13 06:00:21;;;;;;;22.20;13.45;;;;;;;4.89;100.00;100337.47;5068656;28;20037;-49
2023/11/13 06:02:49;;;;;;;23.63;13.35;;;;;;;4.87;100.00;100322.84;5058767;28;20060;-48
2023/11/13 06:05:20;;;;;;;24.33;14.93;;;;;;;4.94;100.00;100323.38;5058873;28;20422;-47
2023/11/13 06:07:49;;;;;;;20.52;13.70;;;;;;;4.91;100.00;100309.56;5059837;28;20049;-48
2023/11/13 06:10:19;;;;;;;23.27;13.82;;;;;;;4.93;100.00;100301.66;5065427;28;20043;-50
2023/11/13 06:12:47;;;;;;;25.80;14.70;;;;;;;4.93;100.00;100306.03;5066635;28;20051;-49
2023/11/13 07:55:27;;;;;;;27.13;14.13;;;;;;;6.12;100.00;100200.63;5096652;27;20809;-56
2023/11/13 07:57:56;;;;;;;25.67;14.32;;;;;;;6.14;100.00;100197.03;5102902;27;20055;-57
2023/11/13 08:00:24;;;;;;;24.88;13.88;;;;;;;6.17;100.00;100204.66;5111954;28;20070;-56
2023/11/13 08:02:53;;;;;;;23.60;14.18;;;;;;;6.15;100.00;100201.31;5110947;28;20052;-50
2023/11/13 08:05:22;;;;;;;25.63;13.65;;;;;;;6.19;100.00;100197.59;5109934;28;20045;-51
2023/11/13 08:07:51;;;;;;;24.40;13.40;;;;;;;6.19;100.00;100197.59;5112018;28;20054;-56
2023/11/13 08:10:20;;;;;;;23.27;13.55;;;;;;;6.25;100.00;100189.41;5109774;28;20827;-57
2023/11/13 08:12:50;;;;;;;23.65;13.57;;;;;;;6.30;100.00;100183.94;5110184;28;20069;-57
2023/11/13 08:15:18;;;;;;;22.63;13.15;;;;;;;6.33;100.00;100185.53;5108892;28;20044;-57
2023/11/13 08:17:52;;;;;;;23.63;13.25;;;;;;;6.34;100.00;100182.81;5109819;28;20043;-57
2023/11/13 08:20:26;;;;;;;22.88;12.60;;;;;;;6.35;100.00;100179.25;5112870;28;20043;-57
2023/11/13 08:22:57;;;;;;;23.77;12.27;;;;;;;6.37;100.00;100171.38;5111738;28;20048;-47
2023/11/13 08:25:28;;;;;;;23.10;13.05;;;;;;;6.48;100.00;100168.97;5109279;28;20155;-46
2023/11/13 08:27:58;;;;;;;19.83;12.07;;;;;;;6.49;100.00;100160.19;5109557;28;20119;-48
2023/11/13 08:30:26;;;;;;;21.13;11.98;;;;;;;6.53;100.00;100158.22;5108338;28;20108;-48
2023/11/13 08:32:54;;;;;;;21.45;11.90;;;;;;;6.57;100.00;100160.59;5108694;28;20124;-56
2023/11/13 08:35:23;;;;;;;21.67;11.95;;;;;;;6.66;100.00;100164.41;5108865;28;20051;-56
2023/11/13 08:37:51;;;;;;;18.02;11.60;;;;;;;6.68;100.00;100148.63;5110217;28;20039;-57
2023/11/13 08:40:23;;;;;;;19.30;11.38;;;;;;;6.72;100.00;100145.75;5109122;28;20052;-48
2023/11/13 08:42:53;;;;;;;19.10;11.52;;;;;;;6.75;100.00;100131.69;5109945;28;20122;-57
2023/11/13 08:45:23;;;;;;;20.42;11.48;;;;;;;6.79;100.00;100132.31;5110157;28;20684;-57
2023/11/13 08:47:53;;;;;;;22.02;12.43;;;;;;;6.84;100.00;100136.31;5111032;28;20769;-48
2023/11/13 08:50:24;;;;;;;20.77;12.35;;;;;;;6.85;100.00;100118.88;5108436;28;20104;-51
2023/11/13 08:52:56;;;;;;;20.70;12.13;;;;;;;6.90;100.00;100114.22;5109335;28;20502;-48
2023/11/13 08:55:25;;;;;;;25.08;12.85;;;;;;;6.98;100.00;100103.28;5107981;28;20079;-48
2023/11/13 08:57:55;;;;;;;21.15;12.23;;;;;;;7.05;100.00;100101.97;5109339;28;20510;-50
2023/11/13 09:00:28;;;;;;;22.65;12.52;;;;;;;7.02;100.00;100095.16;5110045;28;20522;-48
2023/11/13 09:02:57;;;;;;;22.63;11.85;;;;;;;7.05;100.00;100100.19;5110292;28;20059;-51
2023/11/13 09:05:26;;;;;;;20.45;11.77;;;;;;;7.11;100.00;100091.13;5108428;28;20545;-49
2023/11/13 09:07:56;;;;;;;20.45;12.13;;;;;;;7.13;100.00;100084.03;5113055;28;20452;-57
2023/11/13 09:10:27;;;;;;;21.50;12.20;;;;;;;7.28;100.00;100083.06;5112585;28;20075;-58
2023/11/13 09:12:58;;;;;;;23.25;12.10;;;;;;;7.27;100.00;100077.91;5112744;28;20126;-58
2023/11/13 09:15:31;;;;;;;20.50;12.05;;;;;;;7.39;100.00;100055.34;5113577;28;20387;-57
2023/11/13 09:18:01;;;;;;;20.85;12.80;;;;;;;7.47;100.00;100042.63;5116508;28;20522;-57
2023/11/13 09:20:30;;;;;;;20.73;11.77;;;;;;;7.48;100.00;100033.00;5113646;28;20048;-57
2023/11/13 09:22:58;;;;;;;23.23;11.57;;;;;;;7.52;100.00;100029.25;5113069;28;20035;-57
2023/11/13 09:25:31;;;;;;;20.73;12.18;;;;;;;7.55;100.00;100026.44;5116409;28;20047;-57
2023/11/13 09:28:05;;;;;;;24.17;13.13;;;;;;;7.65;100.00;100016.19;5114572;27;20522;-57
2023/11/13 09:30:39;;;;;;;24.40;13.85;;;;;;;7.72;100.00;100020.09;5113445;28;20044;-57
2023/11/13 09:33:10;;;;;;;26.60;12.53;;;;;;;7.77;100.00;100018.00;5113423;28;20048;-57
2023/11/13 09:35:38;;;;;;;24.88;12.77;;;;;;;7.77;100.00;100012.75;5114244;28;20127;-57
2023/11/13 09:38:09;;;;;;;22.92;12.35;;;;;;;7.82;100.00;100000.19;5116250;28;20040;-57
2023/11/13 09:40:37;;;;;;;26.05;13.15;;;;;;;7.84;100.00;99998.34;5116425;28;20051;-57
2023/11/13 09:43:10;;;;;;;26.00;12.18;;;;;;;7.95;100.00;99990.59;5115290;28;20040;-57
2023/11/13 09:45:51;;;;;;;23.33;12.30;;;;;;;7.99;100.00;99987.75;5112718;28;20050;-57
2023/11/13 09:48:28;;;;;;;27.60;12.43;;;;;;;8.03;100.00;99966.50;5113405;28;20082;-57
2023/11/13 09:50:58;;;;;;;23.60;11.05;;;;;;;8.09;100.00;99971.31;5114047;28;20039;-57
2023/11/13 09:53:28;;;;;;;25.50;10.40;;;;;;;8.18;100.00;99961.13;5113231;28;20122;-57
2023/11/13 09:55:58;;;;;;;19.67;7.53;;;;;;;8.27;100.00;99963.97;5116063;28;20122;-57
2023/11/13 09:58:26;;;;;;;22.02;7.30;;;;;;;8.31;100.00;99955.91;5114790;28;20087;-58
2023/11/13 10:00:57;;;;;;;17.92;7.55;;;;;;;8.37;100.00;99951.06;5115860;28;20110;-58
2023/11/13 10:03:25;;;;;;;20.83;6.32;;;;;;;8.43;100.00;99965.53;5115785;28;20049;-57
2023/11/13 10:05:53;;;;;;;14.85;5.57;;;;;;;8.45;100.00;99955.78;5116020;28;20134;-57
2023/11/13 10:08:22;;;;;;;16.67;5.40;;;;;;;8.50;100.00;99951.06;5114015;28;20415;-57
2023/11/13 10:10:50;;;;;;;15.88;5.30;;;;;;;8.50;100.00;99953.69;5114116;28;20109;-57
2023/11/13 10:13:23;;;;;;;14.43;4.53;;;;;;;8.57;100.00;99941.81;5114780;28;20109;-57
2023/11/13 10:15:52;;;;;;;11.80;4.80;;;;;;;8.58;100.00;99934.81;5116041;28;20055;-57
2023/11/13 10:18:28;;;;;;;11.15;4.95;;;;;;;8.63;100.00;99937.94;5113429;28;20031;-58
2023/11/13 10:21:01;;;;;;;11.23;4.38;;;;;;;8.72;100.00;99941.69;5113181;28;20048;-58
2023/11/13 10:23:34;;;;;;;10.90;4.85;;;;;;;8.75;100.00;99929.22;5113848;28;20126;-57
2023/11/13 10:26:03;;;;;;;12.43;4.93;;;;;;;8.78;100.00;99912.38;5112214;28;20079;-57
2023/11/13 10:28:36;;;;;;;12.65;5.28;;;;;;;8.73;100.00;99906.66;5111268;28;20047;-57
2023/11/13 10:31:12;;;;;;;12.00;4.10;;;;;;;8.76;100.00;99896.78;5112741;28;20047;-58
2023/11/13 10:33:56;;;;;;;8.50;3.50;;;;;;;8.80;100.00;99876.44;5112785;28;20055;-58
2023/11/13 10:36:30;;;;;;;11.00;3.67;;;;;;;8.82;100.00;99864.06;5113074;28;20067;-57
2023/11/13 10:39:01;;;;;;;11.77;3.60;;;;;;;8.77;100.00;99859.13;5113152;28;20448;-57
2023/11/13 10:41:33;;;;;;;10.65;3.03;;;;;;;8.81;100.00;99854.50;5113389;28;20058;-57
2023/11/13 10:44:19;;;;;;;;;;;;;;;8.82;100.00;99839.59;5113100;28;20517;-57
2023/11/13 10:46:48;;;;;;;7.97;3.10;;;;;;;8.85;100.00;99834.97;5112708;28;19927;-47
2023/11/13 10:49:18;;;;;;;11.68;2.45;;;;;;;8.84;100.00;99835.91;5111876;28;20128;-47
2023/11/13 10:51:49;;;;;;;5.55;2.30;;;;;;;8.83;100.00;99821.13;5111770;28;20051;-47
2023/11/13 10:54:23;;;;;;;6.97;2.33;;;;;;;8.85;100.00;99800.91;5114697;28;20044;-46
2023/11/13 10:56:54;;;;;;;9.85;2.70;;;;;;;8.91;100.00;99794.34;5113436;28;20517;-48
2023/11/13 10:59:23;;;;;;;9.85;2.65;;;;;;;8.89;100.00;99781.34;5109232;28;20061;-49
2023/11/13 11:01:57;;;;;;;5.93;2.50;;;;;;;8.92;100.00;99783.75;5113080;28;20051;-48
2023/11/13 11:04:29;;;;;;;8.32;3.00;;;;;;;8.96;100.00;99768.63;5110532;28;20052;-47
2023/11/13 11:07:01;;;;;;;10.57;2.97;;;;;;;8.91;100.00;99763.72;5111514;28;20122;-51
2023/11/13 11:09:36;;;;;;;5.28;2.13;;;;;;;8.89;100.00;99752.50;5109625;28;20052;-47
2023/11/13 11:12:07;;;;;;;7.28;2.20;;;;;;;8.93;100.00;99740.84;5109371;28;20079;-51
2023/11/13 11:14:46;;;;;;;6.32;2.15;;;;;;;8.90;100.00;99719.25;5113845;28;20042;-47
2023/11/13 11:17:25;;;;;;;7.88;3.15;;;;;;;8.94;100.00;99716.28;5114176;28;20433;-50
2023/11/13 11:20:02;;;;;;;7.95;2.65;;;;;;;8.97;100.00;99709.97;5112541;28;20053;-49
2023/11/13 11:22:38;;;;;;;7.90;2.20;;;;;;;8.96;100.00;99705.69;5111022;28;20126;-49
2023/11/13 11:25:24;;;;;;;4.78;2.00;;;;;;;8.93;100.00;99698.03;5108570;28;20058;-48
2023/11/13 11:27:52;;;;;;;7.88;2.50;;;;;;;8.98;100.00;99684.59;5110992;28;20047;-48
2023/11/13 11:30:30;;;;;;;9.07;2.78;;;;;;;8.98;100.00;99680.16;5109974;28;20149;-51
2023/11/13 11:32:59;;;;;;;5.88;2.75;;;;;;;9.00;100.00;99674.78;5112666;28;20043;-52
2023/11/13 11:35:31;;;;;;;6.25;3.05;;;;;;;9.06;100.00;99655.97;5113912;28;20135;-51
2023/11/13 11:38:15;;;;;;;8.70;2.97;;;;;;;9.08;100.00;99657.53;5111885;28;20062;-49
2023/11/13 11:40:44;;;;;;;7.32;2.83;;;;;;;9.09;100.00;99650.50;5110608;28;20075;-49
2023/11/13 11:43:15;;;;;;;10.48;3.65;;;;;;;9.16;100.00;99635.09;5109913;28;20176;-51
2023/11/13 11:45:46;;;;;;;6.07;3.20;;;;;;;9.18;100.00;99620.09;5108769;28;20055;-50
2023/11/13 11:48:15;;;;;;;5.90;3.00;;;;;;;9.18;100.00;99622.72;5112245;28;20043;-50
2023/11/13 11:50:45;;;;;;;8.75;3.05;;;;;;;9.19;100.00;99619.97;5112601;28;20047;-48
2023/11/13 11:53:19;;;;;;;8.90;3.67;;;;;;;9.18;100.00;99602.56;5109759;28;20059;-50
2023/11/13 11:55:47;;;;;;;9.30;3.90;;;;;;;9.25;100.00;99597.66;5112027;28;20048;-52
2023/11/13 11:58:17;;;;;;;11.55;4.57;;;;;;;9.30;100.00;99582.41;5113359;28;20052;-52
2023/11/13 12:00:45;;;;;;;11.38;4.70;;;;;;;9.36;100.00;99578.44;5109608;28;20051;-47
2023/11/13 12:03:13;;;;;;;10.93;5.00;;;;;;;9.40;100.00;99570.19;5109543;28;20066;-49
2023/11/13 12:05:41;;;;;;;10.77;5.50;;;;;;;9.43;100.00;99558.63;5108365;28;20047;-47
2023/11/13 12:08:11;;;;;;;11.85;5.22;;;;;;;9.51;100.00;99548.31;5109788;28;20047;-47
2023/11/13 12:10:42;;;;;;;13.90;6.50;;;;;;;9.53;100.00;99535.06;5109800;28;20040;-46
2023/11/13 12:13:11;;;;;;;12.75;6.00;;;;;;;9.58;100.00;99525.88;5109441;28;20436;-47
2023/11/13 12:15:40;;;;;;;13.98;6.55;;;;;;;9.64;100.00;99509.63;5113169;28;20055;-48
2023/11/13 12:18:08;;;;;;;13.93;6.88;;;;;;;9.66;100.00;99495.53;5112909;28;20043;-46
2023/11/13 12:20:36;;;;;;;12.70;5.65;;;;;;;9.65;100.00;99484.19;5113342;28;20131;-57
2023/11/13 12:23:04;;;;;;;14.32;6.15;;;;;;;9.71;100.00;99461.88;5111326;28;20422;-52
2023/11/13 12:25:34;;;;;;;12.25;5.97;;;;;;;9.76;100.00;99444.78;5109163;28;20051;-46
2023/11/13 12:28:05;;;;;;;14.75;6.25;;;;;;;9.83;100.00;99445.09;5112816;28;20043;-58
2023/11/13 12:30:34;;;;;;;13.95;6.22;;;;;;;9.88;100.00;99434.19;5111335;28;20462;-58
2023/11/13 12:33:03;;;;;;;14.73;6.47;;;;;;;9.96;100.00;99424.69;5109886;28;20048;-58
2023/11/13 12:35:33;;;;;;;12.45;6.35;;;;;;;10.00;100.00;99434.94;5112498;28;20043;-58
2023/11/13 12:38:04;;;;;;;13.68;5.90;;;;;;;10.08;100.00;99443.81;5111213;28;20589;-58
2023/11/13 12:40:34;;;;;;;16.08;6.30;;;;;;;10.18;100.00;99438.63;5110661;28;20043;-58
2023/11/13 12:43:04;;;;;;;15.00;5.68;;;;;;;10.29;100.00;99428.03;5111593;28;20092;-58
2023/11/13 12:45:32;;;;;;;16.40;6.07;;;;;;;10.49;100.00;99412.34;5110560;28;20071;-58
2023/11/13 12:48:06;;;;;;;16.00;6.53;;;;;;;10.57;100.00;99422.19;5110087;28;20051;-58
2023/11/13 12:50:38;;;;;;;16.63;6.20;;;;;;;10.61;100.00;99408.63;5107807;28;20047;-58
2023/11/13 12:53:11;;;;;;;18.50;7.15;;;;;;;10.78;100.00;99401.91;5103527;28;20142;-58
2023/11/13 12:55:42;;;;;;;13.02;6.35;;;;;;;10.82;100.00;99402.44;5110956;28;20497;-58
2023/11/13 12:58:15;;;;;;;14.75;6.07;;;;;;;10.84;100.00;99400.53;5111271;28;20062;-58
2023/11/13 13:00:44;;;;;;;15.50;6.15;;;;;;;10.93;100.00;99390.97;5112817;28;20118;-58
2023/11/13 13:03:12;;;;;;;17.70;6.18;;;;;;;10.92;100.00;99397.19;5109635;28;20054;-58
2023/11/13 13:05:42;;;;;;;13.45;5.57;;;;;;;10.97;100.00;99406.31;5110464;28;20051;-58